Time;durP1;ratioP1;P1;durP2;ratioP2;P2;SDS_P1;SDS_P2;PMS_P1;PMS_P2;Temp;Humidity;BMP_temperature;BMP_pressure;BME280_temperature;BME280_humidity;BME280_pressure;Samples;Min_cycle;Max_cycle;Signal;HPM_P1;HPM_P2
2022/12/14 00:02:02;;;;;;;1.50;1.40;;;-6.80;99.90;-6.20;95992.00;;;;4962521;28;20450;-72
2022/12/14 00:04:51;;;;;;;3.30;3.10;;;-6.60;99.90;-6.20;95971.00;;;;4968744;28;20957;-73
2022/12/14 00:07:40;;;;;;;4.07;2.93;;;-6.90;99.90;-5.80;95980.00;;;;4959918;28;20985;-73
2022/12/14 00:10:29;;;;;;;4.27;3.23;;;-6.70;99.90;-5.80;95978.00;;;;4966174;28;20455;-73
2022/12/14 00:13:17;;;;;;;3.30;3.00;;;-6.30;99.90;-5.90;95963.00;;;;4969048;28;20434;-73
2022/12/14 00:16:10;;;;;;;3.13;2.90;;;-6.50;99.90;-6.00;95974.00;;;;4966486;28;20423;-73
2022/12/14 00:19:01;;;;;;;4.50;4.20;;;-6.30;99.90;-5.80;95967.00;;;;4965341;28;20446;-73
2022/12/14 00:21:50;;;;;;;4.23;3.73;;;-6.60;99.90;-5.70;95958.00;;;;4963342;28;20848;-73
2022/12/14 00:24:39;;;;;;;4.50;4.10;;;-6.30;99.90;-5.40;95957.00;;;;4969170;28;20428;-72
2022/12/14 00:27:28;;;;;;;4.10;3.70;;;-6.30;99.90;-5.20;95954.00;;;;4969519;28;20471;-72
2022/12/14 00:30:19;;;;;;;8.67;5.43;;;-6.10;99.90;-5.20;95939.00;;;;4969213;28;20427;-73
2022/12/14 00:33:09;;;;;;;3.63;3.33;;;-5.90;99.90;-5.10;95944.00;;;;4966970;28;20424;-73
2022/12/14 00:35:58;;;;;;;2.83;2.63;;;-6.20;99.90;-5.30;95936.00;;;;4965670;28;20435;-72
2022/12/14 00:38:47;;;;;;;6.20;3.20;;;-6.00;99.90;-5.20;95940.00;;;;4965921;28;20439;-72
2022/12/14 00:41:36;;;;;;;4.70;2.97;;;-5.70;99.90;-5.00;95928.00;;;;4959089;28;20431;-73
2022/12/14 00:44:25;;;;;;;5.53;3.10;;;-5.10;99.90;-5.00;95935.00;;;;4970111;28;20432;-73
2022/12/14 00:47:13;;;;;;;4.43;4.03;;;-5.80;99.90;-5.20;95939.00;;;;4962125;28;20480;-72
2022/12/14 00:50:04;;;;;;;3.90;3.57;;;-5.90;99.90;-5.40;95923.00;;;;4961361;28;20427;-73
2022/12/14 00:52:53;;;;;;;3.90;3.60;;;-5.70;99.90;-5.50;95923.00;;;;4959960;28;20424;-73
2022/12/14 00:55:43;;;;;;;2.87;2.60;;;-5.90;99.90;-5.40;95921.00;;;;4959857;28;20932;-73
2022/12/14 00:58:32;;;;;;;4.13;3.13;;;-5.80;99.90;-5.00;95919.00;;;;4967081;28;20458;-72
2022/12/14 01:01:21;;;;;;;5.70;3.23;;;-5.90;99.90;-4.90;95916.00;;;;4956523;28;20670;-73
2022/12/14 01:04:21;;;;;;;11.67;2.40;;;-5.60;99.90;-4.80;95924.00;;;;4966667;28;20443;-72
2022/12/14 01:07:11;;;;;;;6.77;4.67;;;-4.90;99.90;-4.60;95919.00;;;;4965175;28;20474;-72
2022/12/14 01:10:00;;;;;;;2.90;2.70;;;-4.80;99.90;-4.60;95919.00;;;;4969039;28;20799;-72
2022/12/14 01:12:48;;;;;;;5.97;4.03;;;-5.80;99.90;-4.70;95918.00;;;;4964034;28;20432;-73
2022/12/14 01:15:37;;;;;;;3.47;2.63;;;-5.40;99.90;-4.70;95924.00;;;;4960839;28;20439;-73
2022/12/14 01:18:26;;;;;;;3.30;2.43;;;-4.70;99.90;-4.70;95918.00;;;;4968239;28;20458;-73
2022/12/14 01:21:18;;;;;;;5.63;3.67;;;-5.30;99.90;-4.70;95915.00;;;;4969588;28;20437;-73
2022/12/14 01:24:09;;;;;;;4.60;3.87;;;-4.90;99.90;-4.80;95914.00;;;;4968864;28;20427;-73
2022/12/14 01:26:58;;;;;;;7.60;3.97;;;-4.70;99.90;-4.70;95919.00;;;;4956624;28;20459;-73
2022/12/14 01:29:47;;;;;;;5.63;3.93;;;-5.30;99.90;-4.80;95910.00;;;;4962131;28;20938;-73
2022/12/14 01:32:36;;;;;;;6.53;3.87;;;-5.60;99.90;-4.80;95918.00;;;;4958875;28;20424;-73
2022/12/14 01:35:24;;;;;;;6.17;3.90;;;-5.10;99.90;-4.60;95913.00;;;;4967669;28;20435;-73
2022/12/14 01:38:13;;;;;;;3.57;3.30;;;-4.60;99.90;-4.70;95910.00;;;;4956347;28;20966;-73
2022/12/14 01:41:04;;;;;;;4.20;3.57;;;-5.50;99.90;-4.70;95902.00;;;;4966487;28;20939;-73
2022/12/14 01:43:55;;;;;;;7.00;4.57;;;-5.20;99.90;-4.50;95907.00;;;;4956153;28;20420;-73
2022/12/14 01:46:48;;;;;;;4.43;3.10;;;-4.90;99.90;-4.40;95898.00;;;;4968565;28;20427;-73
2022/12/14 01:49:41;;;;;;;6.33;4.20;;;-5.10;99.90;-4.40;95895.00;;;;4968436;28;20435;-73
2022/12/14 01:52:35;;;;;;;5.30;4.67;;;-4.10;99.90;-4.40;95895.00;;;;4963531;28;20436;-73
2022/12/14 01:55:28;;;;;;;5.03;3.23;;;-5.10;99.90;-4.60;95898.00;;;;4967576;28;20458;-73
2022/12/14 01:58:22;;;;;;;3.63;3.17;;;-5.20;99.90;-4.70;95896.00;;;;4958181;28;20452;-73
2022/12/14 02:01:11;;;;;;;2.60;2.47;;;-4.80;99.90;-4.80;95901.00;;;;4959878;28;20419;-73
2022/12/14 02:04:01;;;;;;;4.17;3.23;;;-5.00;99.90;-4.70;95908.00;;;;4961500;28;20429;-73
2022/12/14 02:06:51;;;;;;;6.00;4.27;;;-5.10;99.90;-4.50;95895.00;;;;4965678;28;20423;-73
2022/12/14 02:09:43;;;;;;;5.50;3.77;;;-4.60;99.90;-4.30;95889.00;;;;4968015;28;20807;-73
2022/12/14 02:12:39;;;;;;;8.60;4.93;;;-4.60;99.90;-4.30;95888.00;;;;4966904;28;20955;-73
2022/12/14 02:15:30;;;;;;;8.43;4.93;;;-5.10;99.90;-4.30;95899.00;;;;4956405;28;20420;-73
2022/12/14 02:18:23;;;;;;;4.23;2.70;;;-4.90;99.90;-4.30;95891.00;;;;4966852;28;20463;-73
2022/12/14 02:21:23;;;;;;;3.83;3.33;;;-4.90;99.90;-4.40;95885.00;;;;4966064;28;20465;-72
2022/12/14 02:24:56;;;;;;;3.93;3.30;;;-4.70;99.90;-4.30;95890.00;;;;4960935;28;20436;-73
2022/12/14 02:28:15;;;;;;;10.47;4.23;;;-4.90;99.90;-4.40;95872.00;;;;4964060;28;20481;-73
2022/12/14 02:31:15;;;;;;;4.23;2.97;;;-5.30;99.90;-4.30;95878.00;;;;4966789;28;20434;-73
2022/12/14 02:34:11;;;;;;;4.23;3.83;;;-4.80;99.90;-4.30;95882.00;;;;4989178;28;20423;-73
2022/12/14 02:37:07;;;;;;;4.87;3.27;;;-4.90;99.90;-4.30;95869.00;;;;4955339;28;20452;-73
2022/12/14 02:40:11;;;;;;;4.40;3.93;;;-4.10;99.90;-4.50;95874.00;;;;4962949;28;20435;-73
2022/12/14 02:43:11;;;;;;;5.70;3.50;;;-4.90;99.90;-4.30;95868.00;;;;4963236;28;20427;-73
2022/12/14 02:46:16;;;;;;;3.63;3.33;;;-4.80;99.90;-4.40;95864.00;;;;4957108;28;20428;-73
2022/12/14 02:49:11;;;;;;;4.03;3.10;;;-4.60;99.90;-4.30;95864.00;;;;4964512;28;20474;-73
2022/12/14 02:52:10;;;;;;;5.60;3.70;;;-4.10;99.90;-4.30;95866.00;;;;4970700;28;20965;-73
2022/12/14 02:55:06;;;;;;;7.80;4.53;;;-4.90;99.90;-4.20;95868.00;;;;4971017;28;20431;-73
2022/12/14 02:58:01;;;;;;;6.67;4.03;;;-4.90;99.90;-4.00;95856.00;;;;4964254;28;20464;-73
2022/12/14 03:00:51;;;;;;;13.27;4.63;;;-4.60;99.90;-3.90;95854.00;;;;4958176;28;20427;-73
2022/12/14 03:03:42;;;;;;;5.30;3.63;;;-4.20;99.90;-3.90;95854.00;;;;4969831;28;20460;-73
2022/12/14 03:06:31;;;;;;;8.17;5.20;;;;;-3.90;95844.00;;;;4967558;28;20954;-73
2022/12/14 03:09:20;;;;;;;4.07;3.47;;;-4.40;99.90;-3.80;95844.00;;;;4960838;28;20513;-73
2022/12/14 03:12:13;;;;;;;4.43;4.07;;;-4.10;99.90;-3.80;95833.00;;;;4970425;28;20431;-74
2022/12/14 03:15:03;;;;;;;3.30;3.00;;;-4.40;99.90;-3.70;95825.00;;;;4956808;28;20435;-73
2022/12/14 03:17:57;;;;;;;4.93;3.67;;;-3.90;99.90;-3.80;95821.00;;;;4962687;28;20966;-74
2022/12/14 03:20:52;;;;;;;5.90;3.27;;;-4.70;99.90;-3.90;95811.00;;;;4964647;28;20458;-74
2022/12/14 03:23:47;;;;;;;3.97;3.63;;;-4.80;99.90;-4.10;95815.00;;;;4971576;28;20419;-74
2022/12/14 03:26:42;;;;;;;6.00;4.70;;;-4.40;99.90;-4.00;95801.00;;;;4970376;28;20435;-74
2022/12/14 03:29:41;;;;;;;8.83;3.43;;;-3.80;99.90;-3.90;95800.00;;;;4960030;28;20533;-74
2022/12/14 03:32:33;;;;;;;4.70;2.90;;;-4.60;99.90;-4.10;95809.00;;;;4968206;28;20451;-73
2022/12/14 03:35:28;;;;;;;7.27;4.33;;;-4.50;99.90;-4.10;95802.00;;;;4965726;28;20435;-74
2022/12/14 03:38:24;;;;;;;4.83;3.73;;;-4.80;99.90;-4.10;95804.00;;;;4969894;28;20454;-74
2022/12/14 03:41:21;;;;;;;8.70;3.67;;;-4.70;99.90;-4.00;95798.00;;;;4969978;28;20801;-74
2022/12/14 03:44:24;;;;;;;4.20;3.73;;;-4.00;99.90;-4.10;95805.00;;;;4955478;28;20438;-74
2022/12/14 03:47:30;;;;;;;11.50;4.90;;;-4.70;99.90;-3.90;95798.00;;;;4961836;28;20456;-74
2022/12/14 03:50:25;;;;;;;3.63;2.77;;;-4.80;99.90;-3.90;95803.00;;;;4965887;28;20458;-74
2022/12/14 03:53:21;;;;;;;3.67;3.37;;;-3.10;99.90;-3.70;95796.00;;;;4970609;28;20439;-74
2022/12/14 03:56:17;;;;;;;9.63;4.47;;;-4.40;99.90;-3.70;95799.00;;;;4959048;28;21192;-74
2022/12/14 03:59:10;;;;;;;5.03;3.40;;;-3.70;99.90;-3.70;95804.00;;;;4958599;28;20427;-74
2022/12/14 04:02:05;;;;;;;6.03;4.27;;;-4.20;99.90;-3.90;95796.00;;;;4969658;28;20427;-74
2022/12/14 04:05:01;;;;;;;3.13;2.93;;;-4.10;99.90;-4.10;95805.00;;;;4964793;28;20434;-74
2022/12/14 04:08:03;;;;;;;2.47;2.27;;;-4.60;99.90;-4.10;95816.00;;;;4964577;22;20874;-83
2022/12/14 04:20:42;;;;;;;3.83;3.53;;;-4.40;99.90;-3.60;95809.00;;;;4965759;28;20904;-85
2022/12/14 04:26:53;;;;;;;4.47;3.77;;;-2.30;99.90;-3.60;95791.00;;;;4948657;28;20467;-83
2022/12/14 04:29:59;;;;;;;8.07;2.97;;;-4.30;99.90;-3.80;95799.00;;;;4948866;28;20493;-82
2022/12/14 04:32:52;;;;;;;3.97;3.63;;;-4.20;99.90;-3.50;95790.00;;;;4949087;28;20432;-82
2022/12/14 04:35:42;;;;;;;4.60;4.30;;;-4.50;99.90;-3.40;95784.00;;;;4967802;28;20432;-82
2022/12/14 04:38:36;;;;;;;6.10;3.67;;;-3.80;99.90;-3.60;95775.00;;;;4954420;28;20998;-82
2022/12/14 04:41:31;;;;;;;6.80;4.17;;;-3.70;99.90;-3.70;95770.00;;;;4955095;28;20435;-82
2022/12/14 04:44:25;;;;;;;3.77;3.03;;;-4.50;99.90;-3.80;95763.00;;;;4973993;28;20438;-84
2022/12/14 04:47:17;;;;;;;4.63;4.10;;;-4.40;99.90;-3.80;95763.00;;;;4974679;28;20454;-82
2022/12/14 04:50:12;;;;;;;5.07;4.03;;;-3.90;99.90;-3.70;95768.00;;;;4973965;28;20493;-84
2022/12/14 04:53:06;;;;;;;5.93;4.37;;;-4.40;99.90;-3.70;95755.00;;;;4953668;28;20452;-83
2022/12/14 04:56:05;;;;;;;5.57;4.50;;;-4.60;99.90;-3.70;95758.00;;;;4949890;28;20435;-85
2022/12/14 04:58:54;;;;;;;5.13;4.00;;;-4.30;99.90;-3.50;95764.00;;;;4949099;28;20454;-83
2022/12/14 05:01:55;;;;;;;8.23;5.70;;;-4.00;99.90;-3.70;95759.00;;;;4955480;28;20428;-82
2022/12/14 05:04:54;;;;;;;4.57;3.87;;;-3.90;99.90;-3.70;95763.00;;;;4957076;28;20432;-84
2022/12/14 05:07:52;;;;;;;5.53;4.70;;;-3.90;99.90;-3.70;95772.00;;;;4949965;28;20459;-84
2022/12/14 05:10:46;;;;;;;4.70;4.17;;;-4.60;99.90;-3.70;95777.00;;;;4958918;28;20484;-82
2022/12/14 05:13:42;;;;;;;6.43;4.27;;;-3.00;99.90;-3.50;95759.00;;;;4967786;28;20431;-84
2022/12/14 05:16:31;;;;;;;4.83;3.93;;;-3.60;99.90;-3.40;95754.00;;;;4960040;28;20444;-83
2022/12/14 05:19:25;;;;;;;9.20;5.13;;;-2.40;99.90;-3.30;95758.00;;;;4952974;29;20447;-84
2022/12/14 05:22:14;;;;;;;7.40;3.83;;;-3.90;99.90;-3.20;95760.00;;;;4946251;28;21002;-85
2022/12/14 05:25:02;;;;;;;3.87;3.57;;;-3.80;99.90;-3.20;95739.00;;;;4978861;28;20458;-84
2022/12/14 05:27:51;;;;;;;3.43;3.07;;;-4.20;99.90;-3.10;95746.00;;;;4951843;28;20475;-85
2022/12/14 05:30:40;;;;;;;6.13;5.53;;;-4.00;99.90;-3.20;95771.00;;;;4959326;28;20889;-85
2022/12/14 05:33:29;;;;;;;5.90;4.17;;;-3.60;99.90;-3.10;95782.00;;;;4956392;28;20443;-86
2022/12/14 05:36:19;;;;;;;7.00;4.83;;;-3.90;99.90;-3.50;95757.00;;;;4955944;28;20439;-85
2022/12/14 05:39:08;;;;;;;8.80;6.90;;;-3.80;99.90;-3.40;95736.00;;;;4970668;28;20452;-84
2022/12/14 05:41:57;;;;;;;6.90;4.87;;;-4.20;99.90;-3.60;95749.00;;;;4948602;28;20891;-84
2022/12/14 05:44:45;;;;;;;5.83;5.07;;;-4.30;99.90;-3.30;95751.00;;;;4960501;28;20451;-84
2022/12/14 05:47:34;;;;;;;8.77;4.93;;;-3.70;99.90;-3.40;95745.00;;;;4956113;28;20444;-84
2022/12/14 05:50:23;;;;;;;6.80;4.63;;;-4.30;99.90;-3.60;95719.00;;;;4963098;28;21060;-84
2022/12/14 05:53:13;;;;;;;4.63;4.30;;;-3.70;99.90;-3.40;95735.00;;;;4955128;28;20429;-83
2022/12/14 05:56:02;;;;;;;5.70;4.90;;;-3.70;99.90;-3.30;95705.00;;;;4957975;28;20432;-84
2022/12/14 05:58:52;;;;;;;11.80;4.83;;;-4.30;99.90;-3.30;95680.00;;;;4951782;28;20424;-84
2022/12/14 06:01:40;;;;;;;4.80;4.27;;;-3.70;99.90;-3.30;95696.00;;;;4948444;28;20807;-84
2022/12/14 06:04:29;;;;;;;5.40;3.70;;;-3.40;99.90;-3.30;95716.00;;;;4953141;28;20999;-84
2022/12/14 06:07:18;;;;;;;5.17;4.03;;;-3.40;99.90;-3.50;95721.00;;;;4945819;28;20478;-81
2022/12/14 06:10:10;;;;;;;6.40;3.93;;;-3.80;99.90;-3.30;95722.00;;;;4950680;28;20469;-83
2022/12/14 06:12:59;;;;;;;4.07;3.30;;;-4.20;99.90;-3.20;95730.00;;;;4962171;28;20430;-83
2022/12/14 06:15:48;;;;;;;5.77;2.93;;;-3.90;99.90;-3.40;95748.00;;;;4952582;28;20423;-83
2022/12/14 06:18:40;;;;;;;5.03;4.53;;;-3.70;99.90;-3.60;95730.00;;;;4947766;28;20448;-84
2022/12/14 06:21:32;;;;;;;9.53;5.33;;;-4.60;99.90;-3.50;95733.00;;;;4959437;28;20437;-84
2022/12/14 06:24:20;;;;;;;5.17;3.50;;;-4.10;99.90;-3.30;95741.00;;;;4960067;28;20497;-84
2022/12/14 06:27:11;;;;;;;4.83;3.93;;;-4.30;99.90;-3.40;95742.00;;;;4959179;28;20448;-84
2022/12/14 06:29:59;;;;;;;6.70;3.80;;;-4.00;99.90;-3.40;95725.00;;;;4959081;28;20986;-84
2022/12/14 06:32:48;;;;;;;7.77;4.97;;;-3.90;99.90;-3.30;95725.00;;;;4957633;28;20463;-84
2022/12/14 06:35:37;;;;;;;11.87;5.57;;;-4.00;99.90;-3.30;95714.00;;;;4955016;28;20439;-84
2022/12/14 06:38:26;;;;;;;4.20;3.37;;;-3.50;99.90;-3.10;95734.00;;;;4960141;28;20452;-84
2022/12/14 06:41:14;;;;;;;5.90;4.67;;;-4.00;99.90;-3.10;95740.00;;;;4961953;28;21464;-83
2022/12/14 06:44:07;;;;;;;6.47;5.97;;;-4.00;99.90;-3.00;95722.00;;;;4954213;28;20426;-83
2022/12/14 06:46:56;;;;;;;6.17;4.53;;;-4.10;99.90;-2.90;95732.00;;;;4952707;28;20479;-83
2022/12/14 06:49:45;;;;;;;6.70;5.30;;;-3.80;99.90;-2.80;95725.00;;;;4953415;28;21091;-83
2022/12/14 06:52:33;;;;;;;5.77;5.17;;;-3.10;99.90;-2.80;95725.00;;;;4953077;28;20449;-83
2022/12/14 06:55:22;;;;;;;5.17;4.67;;;-3.90;99.90;-2.60;95739.00;;;;4950928;28;20436;-84
2022/12/14 06:58:13;;;;;;;6.60;4.33;;;-3.10;99.90;-2.70;95731.00;;;;4963221;28;20814;-84
2022/12/14 07:01:06;;;;;;;11.80;4.57;;;-3.90;99.90;-2.60;95722.00;;;;4958506;28;20978;-84
2022/12/14 07:03:59;;;;;;;6.77;4.83;;;-3.50;99.90;-2.50;95727.00;;;;4953406;28;20432;-85
2022/12/14 07:06:48;;;;;;;6.67;4.20;;;-3.70;99.90;-2.70;95723.00;;;;4958900;28;20444;-84
2022/12/14 07:09:40;;;;;;;5.40;4.90;;;-3.50;99.90;-2.60;95726.00;;;;4947064;29;20930;-84
2022/12/14 07:12:31;;;;;;;8.77;5.17;;;-3.50;99.90;-2.70;95717.00;;;;4962932;28;20439;-85
2022/12/14 07:15:22;;;;;;;6.90;5.57;;;-3.30;99.90;-2.40;95724.00;;;;4970123;28;20956;-85
2022/12/14 07:18:12;;;;;;;8.70;4.77;;;-3.40;99.90;-2.40;95721.00;;;;4963730;28;20455;-83
2022/12/14 07:21:03;;;;;;;7.33;5.23;;;-3.20;99.90;-2.40;95714.00;;;;4974497;28;20470;-83
2022/12/14 07:23:52;;;;;;;8.23;5.83;;;-3.40;99.90;-2.20;95717.00;;;;4978887;28;20432;-84
2022/12/14 07:26:41;;;;;;;7.30;6.60;;;-2.30;99.90;-2.10;95723.00;;;;4957080;28;20460;-84
2022/12/14 07:29:30;;;;;;;5.63;4.47;;;-3.50;99.90;-2.10;95714.00;;;;4951436;28;20428;-84
2022/12/14 07:32:22;;;;;;;7.30;5.87;;;-1.40;99.90;-2.10;95724.00;;;;4964071;28;20427;-83
2022/12/14 07:35:12;;;;;;;8.73;6.10;;;-3.40;99.90;-2.10;95722.00;;;;4957543;29;20809;-84
2022/12/14 07:38:04;;;;;;;9.20;6.20;;;-3.40;99.90;-2.10;95710.00;;;;4961541;28;20471;-84
2022/12/14 07:40:52;;;;;;;10.57;5.43;;;-3.30;99.90;-2.00;95721.00;;;;4963083;28;20849;-83
2022/12/14 07:43:43;;;;;;;10.97;6.73;;;-3.10;99.90;-2.00;95735.00;;;;4961545;28;20440;-84
2022/12/14 07:46:32;;;;;;;13.17;4.83;;;-2.40;99.90;-2.10;95740.00;;;;4962455;28;20447;-85
2022/12/14 07:49:21;;;;;;;6.43;4.90;;;-3.40;99.90;-2.10;95747.00;;;;4967898;28;20440;-84
2022/12/14 07:52:11;;;;;;;8.13;4.90;;;-3.20;99.90;-2.20;95747.00;;;;4958594;28;20428;-84
2022/12/14 07:55:00;;;;;;;7.83;5.37;;;-3.00;99.90;-2.10;95751.00;;;;4961780;28;20423;-83
2022/12/14 07:57:49;;;;;;;7.90;5.10;;;-3.10;99.90;-2.20;95735.00;;;;4954044;28;20472;-83
2022/12/14 08:00:38;;;;;;;7.67;5.07;;;-3.00;99.90;-2.30;95731.00;;;;4961783;28;20433;-84
2022/12/14 08:03:27;;;;;;;12.37;6.07;;;-2.10;99.90;-2.00;95725.00;;;;4950943;28;20958;-84
2022/12/14 08:06:20;;;;;;;7.80;5.30;;;-3.20;99.90;-1.80;95737.00;;;;4966509;28;20438;-82
2022/12/14 08:09:12;;;;;;;9.57;6.70;;;-2.80;99.90;-1.80;95738.00;;;;4979016;28;20811;-83
2022/12/14 08:12:01;;;;;;;10.53;6.20;;;-1.80;99.90;-1.90;95723.00;;;;4966032;28;20488;-83
2022/12/14 08:14:51;;;;;;;13.03;6.50;;;-2.90;99.90;-1.70;95730.00;;;;4958703;28;20432;-83
2022/12/14 08:17:40;;;;;;;12.03;7.40;;;-2.30;99.90;-1.60;95740.00;;;;4964791;28;20949;-84
2022/12/14 08:20:29;;;;;;;10.40;6.67;;;-2.90;99.90;-1.60;95738.00;;;;4968812;28;20439;-83
2022/12/14 08:23:18;;;;;;;13.20;6.60;;;-3.00;99.90;-1.60;95729.00;;;;4965157;28;20436;-83
2022/12/14 08:26:08;;;;;;;10.77;7.27;;;-2.90;99.90;-1.60;95746.00;;;;4967508;28;20439;-84
2022/12/14 08:28:57;;;;;;;9.60;6.60;;;-2.00;99.90;-1.70;95724.00;;;;4957081;28;20926;-83
2022/12/14 08:31:46;;;;;;;6.93;6.33;;;-2.40;99.90;-1.70;95728.00;;;;4965695;28;20471;-83
2022/12/14 08:34:35;;;;;;;11.37;7.73;;;-2.80;99.90;-1.50;95722.00;;;;4961124;29;20432;-82
2022/12/14 08:37:24;;;;;;;10.27;7.10;;;-2.70;99.90;-1.40;95728.00;;;;4952992;28;20460;-84
2022/12/14 08:40:13;;;;;;;7.83;6.90;;;-2.60;99.90;-1.70;95722.00;;;;4959074;28;20436;-84
2022/12/14 08:43:04;;;;;;;8.40;6.53;;;-1.60;99.90;-1.70;95731.00;;;;4963499;28;20432;-83
2022/12/14 08:45:55;;;;;;;16.40;8.03;;;-2.50;99.90;-1.40;95730.00;;;;4963582;28;20432;-82
2022/12/14 08:48:44;;;;;;;10.77;7.27;;;-2.60;99.90;-1.30;95724.00;;;;4959452;28;20436;-83
2022/12/14 08:51:32;;;;;;;12.17;6.50;;;-1.80;99.90;-1.10;95724.00;;;;4991980;28;20545;-84
2022/12/14 08:54:22;;;;;;;9.47;7.53;;;-2.00;99.90;-1.00;95731.00;;;;4965257;28;20451;-84
2022/12/14 08:57:11;;;;;;;10.57;7.93;;;-2.50;99.90;-1.00;95731.00;;;;4958120;28;20467;-83
2022/12/14 09:00:01;;;;;;;11.57;7.03;;;-2.30;99.90;-1.20;95729.00;;;;4955926;28;20435;-83
2022/12/14 09:02:51;;;;;;;13.97;7.97;;;-2.10;99.90;-1.10;95722.00;;;;4971803;28;20428;-86
2022/12/14 09:05:40;;;;;;;12.83;9.17;;;-1.20;99.90;-1.10;95724.00;;;;4951940;28;20497;-84
2022/12/14 09:08:29;;;;;;;11.07;8.10;;;-2.10;99.90;-1.10;95736.00;;;;4968947;28;20463;-82
2022/12/14 09:11:20;;;;;;;9.73;7.73;;;-2.20;99.90;-1.20;95737.00;;;;4973200;28;20482;-83
2022/12/14 09:14:09;;;;;;;14.10;10.17;;;-2.30;99.90;-1.00;95746.00;;;;4963511;28;20435;-84
2022/12/14 09:17:00;;;;;;;16.23;10.03;;;-2.10;99.90;-0.90;95744.00;;;;4957466;28;20465;-83
2022/12/14 09:19:49;;;;;;;12.87;7.37;;;-0.70;99.90;-1.20;95737.00;;;;4967379;28;20423;-83
2022/12/14 09:22:38;;;;;;;14.37;9.00;;;-2.20;99.90;-1.20;95734.00;;;;4985092;28;20435;-85
2022/12/14 09:25:27;;;;;;;11.80;8.17;;;-2.10;99.90;-1.10;95721.00;;;;4985052;28;20427;-82
2022/12/14 09:28:16;;;;;;;18.63;10.03;;;-2.10;99.90;-1.30;95715.00;;;;4964540;29;20457;-84
2022/12/14 09:31:07;;;;;;;7.00;4.87;;;-0.70;99.90;-1.60;95703.00;;;;5007302;28;20459;-83
2022/12/14 09:33:58;;;;;;;9.63;7.17;;;-2.00;99.90;-1.40;95689.00;;;;4973221;28;20428;-84
2022/12/14 09:36:47;;;;;;;13.03;8.90;;;-2.50;99.90;-1.20;95696.00;;;;4957473;28;20449;-83
2022/12/14 09:39:36;;;;;;;13.63;9.27;;;-2.20;99.90;-1.40;95690.00;;;;4961418;28;20823;-83
2022/12/14 09:42:51;;;;;;;16.43;9.40;;;-2.20;99.90;-0.60;95694.00;;;;4965037;28;20490;-83
2022/12/14 09:45:48;;;;;;;15.10;10.23;;;-1.80;99.90;-0.10;95692.00;;;;4976329;28;20485;-83
2022/12/14 09:48:37;;;;;;;15.43;9.60;;;-2.00;99.90;0.20;95700.00;;;;4957962;28;20838;-83
2022/12/14 09:51:33;;;;;;;13.70;8.50;;;-1.70;99.90;-0.40;95691.00;;;;4956277;28;20466;-82
2022/12/14 09:54:26;;;;;;;12.33;9.43;;;-1.20;99.90;-0.50;95691.00;;;;4972478;28;20439;-83
2022/12/14 09:57:25;;;;;;;14.13;9.07;;;-1.60;99.90;0.30;95702.00;;;;4971439;28;20483;-84
2022/12/14 10:00:17;;;;;;;6.97;5.80;;;-0.60;99.90;0.10;95686.00;;;;4959908;28;20950;-83
2022/12/14 10:03:26;;;;;;;9.83;8.10;;;-0.80;99.90;-0.40;95686.00;;;;4946350;29;20785;-83
2022/12/14 10:06:33;;;;;;;11.23;8.10;;;-1.30;99.90;-0.20;95665.00;;;;4950495;28;20524;-82
2022/12/14 10:09:33;;;;;;;8.27;5.63;;;-1.20;99.90;-0.20;95657.00;;;;4989225;28;20466;-83
2022/12/14 10:12:35;;;;;;;13.93;8.57;;;0.70;99.90;0.30;95672.00;;;;4956880;28;20989;-81
2022/12/14 10:15:31;;;;;;;12.50;8.27;;;-0.50;99.90;0.50;95664.00;;;;4967935;28;20431;-81
2022/12/14 10:18:35;;;;;;;11.53;8.10;;;-0.60;99.90;0.80;95655.00;;;;4988206;28;20448;-82
2022/12/14 10:21:54;;;;;;;16.67;9.37;;;0.70;99.90;2.00;95642.00;;;;4955214;28;20435;-81
2022/12/14 10:24:46;;;;;;;12.03;9.37;;;0.50;99.90;2.40;95638.00;;;;4946557;28;20433;-83
2022/12/14 10:27:36;;;;;;;13.07;8.77;;;1.00;99.90;2.20;95629.00;;;;4948799;28;20821;-83
2022/12/14 10:30:36;;;;;;;13.00;8.90;;;2.30;99.90;3.20;95630.00;;;;4976763;28;20458;-84
2022/12/14 10:33:29;;;;;;;16.63;10.63;;;3.00;99.90;3.50;95627.00;;;;4974827;28;20435;-83
2022/12/14 10:36:24;;;;;;;11.43;8.87;;;4.50;99.90;4.00;95624.00;;;;4960610;28;20440;-84
2022/12/14 10:39:32;;;;;;;12.87;9.50;;;3.60;99.90;4.10;95619.00;;;;4966068;28;20435;-80
2022/12/14 10:42:30;;;;;;;13.53;10.47;;;4.20;99.90;4.70;95618.00;;;;4974863;28;20427;-80
2022/12/14 10:45:28;;;;;;;18.53;11.87;;;4.90;98.70;5.10;95620.00;;;;4979935;28;20415;-84
2022/12/14 10:48:45;;;;;;;14.47;8.87;;;5.10;98.40;4.00;95605.00;;;;4958299;28;20456;-82
2022/12/14 10:51:38;;;;;;;14.53;10.30;;;5.40;94.70;3.30;95593.00;;;;4967894;28;20686;-83
2022/12/14 10:54:33;;;;;;;16.30;10.83;;;4.90;94.20;3.80;95602.00;;;;4966479;28;20207;-83
2022/12/14 10:57:25;;;;;;;16.00;8.93;;;5.50;95.40;2.80;95573.00;;;;4965317;28;20674;-82
2022/12/14 11:00:16;;;;;;;16.77;10.27;;;4.80;94.30;2.80;95561.00;;;;4956015;28;20210;-82
2022/12/14 11:03:15;;;;;;;13.97;9.90;;;3.90;94.50;3.00;95559.00;;;;4969186;28;20219;-84
2022/12/14 11:06:12;;;;;;;17.23;10.93;;;3.70;94.60;3.20;95545.00;;;;4949178;28;20207;-84
2022/12/14 11:09:19;;;;;;;13.80;10.17;;;3.80;94.80;3.60;95546.00;;;;4956179;28;20576;-82
2022/12/14 11:12:22;;;;;;;15.47;11.07;;;4.00;94.90;3.70;95555.00;;;;4976683;28;20280;-83
2022/12/14 11:18:23;;;;;;;12.73;8.97;;;4.10;93.80;4.10;95529.00;;;;4915715;29;20237;-67
2022/12/14 11:21:15;;;;;;;13.97;10.70;;;3.90;94.20;4.20;95538.00;;;;4930251;29;20600;-69
2022/12/14 11:24:05;;;;;;;12.10;9.70;;;4.20;94.40;4.00;95528.00;;;;4930282;28;20212;-69
2022/12/14 11:26:59;;;;;;;17.17;10.63;;;4.20;94.00;4.80;95512.00;;;;4925433;28;20267;-70
2022/12/14 11:29:51;;;;;;;13.57;8.97;;;4.30;94.10;4.70;95507.00;;;;4931848;29;20711;-70
2022/12/14 11:32:41;;;;;;;17.53;10.33;;;4.50;93.90;4.70;95500.00;;;;4932216;29;20814;-70
2022/12/14 11:35:30;;;;;;;13.93;10.07;;;4.70;93.10;3.90;95495.00;;;;4929848;29;20209;-70
2022/12/14 11:38:19;;;;;;;15.03;10.87;;;4.60;92.50;4.40;95496.00;;;;4931656;28;20255;-70
2022/12/14 11:41:09;;;;;;;14.20;10.00;;;4.40;93.00;4.60;95491.00;;;;4923944;29;20215;-69
2022/12/14 11:44:22;;;;;;;14.17;9.70;;;4.50;93.10;3.20;95495.00;;;;4931649;29;20335;-69
2022/12/14 11:47:15;;;;;;;14.43;10.47;;;4.30;92.50;3.20;95485.00;;;;4932684;29;20676;-70
2022/12/14 11:50:24;;;;;;;17.03;11.03;;;3.70;92.90;2.80;95488.00;;;;4931610;29;20262;-69
2022/12/14 11:53:16;;;;;;;13.43;10.20;;;3.10;93.50;2.70;95465.00;;;;4952441;28;20224;-70
2022/12/14 11:56:10;;;;;;;13.13;10.13;;;2.90;94.00;2.50;95449.00;;;;4929030;29;20235;-70
2022/12/14 11:58:59;;;;;;;15.33;9.90;;;2.70;94.60;3.60;95448.00;;;;4931055;28;20228;-70
2022/12/14 12:01:48;;;;;;;16.20;10.83;;;2.80;95.30;4.00;95442.00;;;;4931034;29;20217;-69
2022/12/14 12:04:46;;;;;;;14.43;9.90;;;3.10;95.60;3.60;95436.00;;;;4925798;28;20213;-70
2022/12/14 12:07:39;;;;;;;15.63;10.60;;;2.90;95.30;3.20;95428.00;;;;4924489;29;20225;-70
2022/12/14 12:10:40;;;;;;;16.33;10.50;;;2.70;95.20;3.00;95422.00;;;;4938162;28;20441;-69
2022/12/14 12:13:32;;;;;;;17.70;11.03;;;2.70;95.20;2.90;95403.00;;;;4930244;29;20476;-70
2022/12/14 12:16:23;;;;;;;13.90;9.37;;;2.90;95.50;3.20;95423.00;;;;4930868;29;20437;-69
2022/12/14 12:19:15;;;;;;;14.70;10.43;;;2.30;95.20;3.90;95427.00;;;;4930683;29;20225;-70
2022/12/14 12:22:09;;;;;;;11.10;8.73;;;2.50;95.50;3.60;95419.00;;;;4930822;28;20204;-70
2022/12/14 12:25:04;;;;;;;20.13;10.97;;;3.00;95.30;3.20;95409.00;;;;4926542;28;20209;-70
2022/12/14 12:28:18;;;;;;;16.20;11.93;;;3.10;95.00;2.80;95413.00;;;;4928710;29;20607;-70
2022/12/14 12:31:14;;;;;;;16.30;10.80;;;2.70;94.80;4.00;95422.00;;;;4932081;29;20583;-70
2022/12/14 12:34:12;;;;;;;15.80;9.83;;;2.90;95.30;4.40;95403.00;;;;4931384;29;20229;-70
2022/12/14 12:37:09;;;;;;;20.90;10.70;;;3.20;95.10;4.90;95414.00;;;;4925488;29;20200;-69
2022/12/14 12:40:20;;;;;;;17.33;10.20;;;3.70;95.20;5.10;95408.00;;;;4931241;29;20302;-70
2022/12/14 12:43:17;;;;;;;11.73;9.73;;;3.80;94.60;5.40;95418.00;;;;4952622;28;20665;-70
2022/12/14 12:46:14;;;;;;;16.63;10.90;;;4.00;94.00;5.40;95408.00;;;;4988526;28;20673;-70
2022/12/14 12:49:08;;;;;;;17.20;10.60;;;4.20;93.60;5.40;95405.00;;;;4930179;29;20225;-70
2022/12/14 12:52:03;;;;;;;14.43;10.20;;;4.40;93.30;5.30;95396.00;;;;4930632;28;20201;-71
2022/12/14 12:55:02;;;;;;;15.17;10.77;;;4.50;93.00;5.20;95401.00;;;;4926317;29;20196;-70
2022/12/14 12:57:55;;;;;;;13.90;9.27;;;4.40;93.00;5.20;95390.00;;;;4932927;28;20244;-70
2022/12/14 13:00:50;;;;;;;13.47;10.83;;;4.00;92.80;5.00;95390.00;;;;4929520;28;20201;-70
2022/12/14 13:03:44;;;;;;;16.37;11.13;;;4.20;93.00;5.10;95386.00;;;;4930246;28;20683;-71
2022/12/14 13:06:41;;;;;;;16.93;10.80;;;4.20;93.30;4.80;95392.00;;;;4928404;28;20209;-70